Terminal Aerodrome Forecast
Issued by NWS

Home | Current Version | Previous Version | Text Only | Print | Product List | Glossary On
Versions: 1 2 3 4 5 6 7 8 9 10 11 12 13 14 15 16 17 18 19 20
019
FTUS43 KMQT 171720
TAFCMX
TAF
KCMX 171720Z 1718/1818 10010KT 1/4SM -SHRA FG VV001
     FM172100 09006KT 1/2SM -SHRA FG VCTS OVC003CB
     FM180000 33005KT 1/2SM -SHRA FG OVC003
     FM180400 33011KT 1/2SM FG VCSH OVC003
     FM180600 34013KT 1SM BR VCSH OVC003
     FM181500 31014G22KT 4SM BR OVC015
     FM181700 30014G21KT P6SM OVC020=

USA.gov is the U.S. government's official web portal to all federal, state and local government web resources and services.